createdAt,value
2017-10-31T00:00:00.276Z,10.30
2017-10-31T00:02:28.970Z,9.82
2017-10-31T00:04:58.631Z,10.63
2017-10-31T00:07:28.472Z,11.07
2017-10-31T00:09:56.756Z,9.60
2017-10-31T00:12:27.349Z,9.40
2017-10-31T00:14:55.763Z,10.45
2017-10-31T00:17:24.039Z,9.27
2017-10-31T00:19:52.124Z,10.52
2017-10-31T00:22:23.483Z,8.82
2017-10-31T00:24:53.015Z,9.40
2017-10-31T00:27:21.516Z,9.50
2017-10-31T00:29:49.987Z,8.75
2017-10-31T00:32:19.456Z,8.60
2017-10-31T00:34:47.705Z,8.88
2017-10-31T00:37:16.180Z,7.80
2017-10-31T00:39:45.555Z,9.20
2017-10-31T00:42:14.109Z,7.75
2017-10-31T00:44:42.539Z,7.60
2017-10-31T00:47:11.786Z,7.37
2017-10-31T00:49:39.386Z,8.02
2017-10-31T00:52:07.084Z,7.70
2017-10-31T00:54:35.589Z,8.40
2017-10-31T00:57:03.174Z,7.85
2017-10-31T00:59:31.513Z,7.90
2017-10-31T01:01:59.290Z,7.65
2017-10-31T01:04:30.918Z,8.13
2017-10-31T01:06:58.484Z,8.38
2017-10-31T01:09:25.996Z,8.48
2017-10-31T01:11:53.620Z,8.18
2017-10-31T01:14:21.222Z,8.30
2017-10-31T01:16:49.163Z,7.75
2017-10-31T01:19:16.780Z,8.90
2017-10-31T01:21:45.544Z,8.10
2017-10-31T01:24:16.628Z,8.00
2017-10-31T01:26:46.080Z,8.55
2017-10-31T01:29:14.856Z,8.43
2017-10-31T01:31:44.059Z,7.62
2017-10-31T01:34:11.783Z,7.80
2017-10-31T01:36:39.764Z,7.45
2017-10-31T01:39:08.046Z,7.95
2017-10-31T01:41:36.364Z,9.00
2017-10-31T01:44:05.577Z,9.55
2017-10-31T01:46:34.354Z,8.65
2017-10-31T01:49:02.159Z,7.65
2017-10-31T01:51:29.911Z,8.55
2017-10-31T01:53:59.464Z,7.45
2017-10-31T01:56:27.302Z,7.75
2017-10-31T01:58:55.819Z,8.23
2017-10-31T02:01:23.576Z,8.15
2017-10-31T02:03:51.296Z,7.90
2017-10-31T02:06:18.911Z,8.85
2017-10-31T02:08:48.037Z,8.35
2017-10-31T02:11:16.533Z,8.02
2017-10-31T02:13:44.928Z,9.32
2017-10-31T02:16:12.596Z,8.15
2017-10-31T02:18:40.453Z,8.15
2017-10-31T02:21:08.289Z,8.63
2017-10-31T02:23:35.917Z,8.93
2017-10-31T02:26:04.448Z,8.85
2017-10-31T02:28:32.270Z,8.35
2017-10-31T02:30:59.983Z,7.60
2017-10-31T02:33:28.672Z,7.05
2017-10-31T02:35:56.375Z,8.10
2017-10-31T02:38:24.544Z,8.18
2017-10-31T02:40:52.145Z,7.62
2017-10-31T02:43:19.775Z,7.20
2017-10-31T02:45:47.343Z,7.93
2017-10-31T02:48:14.888Z,8.13
2017-10-31T02:50:42.530Z,8.35
2017-10-31T02:53:10.073Z,9.07
2017-10-31T02:55:38.309Z,7.70
2017-10-31T02:58:06.626Z,7.85
2017-10-31T03:00:34.407Z,7.87
2017-10-31T03:03:01.982Z,8.85
2017-10-31T03:05:29.617Z,7.95
2017-10-31T03:07:57.195Z,8.57
2017-10-31T03:10:24.910Z,8.10
2017-10-31T03:12:52.511Z,8.30
2017-10-31T03:15:20.088Z,7.55
2017-10-31T03:17:47.885Z,8.15
2017-10-31T03:20:15.521Z,7.82
2017-10-31T03:22:43.081Z,8.68
2017-10-31T03:25:10.673Z,7.75
2017-10-31T03:27:38.205Z,8.07
2017-10-31T03:30:06.554Z,8.15
2017-10-31T03:32:34.319Z,8.75
2017-10-31T03:35:02.312Z,8.43
2017-10-31T03:37:29.805Z,7.05
2017-10-31T03:39:57.456Z,8.50
2017-10-31T03:42:25.040Z,8.10
2017-10-31T03:44:52.662Z,7.75
2017-10-31T03:47:20.212Z,8.73
2017-10-31T03:49:48.863Z,8.02
2017-10-31T03:52:18.193Z,7.65
2017-10-31T03:54:45.898Z,7.53
2017-10-31T03:57:13.478Z,8.32
2017-10-31T03:59:41.055Z,7.53
2017-10-31T04:02:08.636Z,7.72
2017-10-31T04:04:36.204Z,10.43
2017-10-31T04:07:04.463Z,11.15
2017-10-31T04:09:33.067Z,9.20
2017-10-31T04:12:00.696Z,8.27
2017-10-31T04:14:28.433Z,8.75
2017-10-31T04:16:56.070Z,8.05
2017-10-31T04:19:23.705Z,8.05
2017-10-31T04:21:51.224Z,8.18
2017-10-31T04:24:18.880Z,8.23
2017-10-31T04:26:46.367Z,7.80
2017-10-31T04:29:14.082Z,8.10
2017-10-31T04:31:44.998Z,8.20
2017-10-31T04:34:12.509Z,8.25
2017-10-31T04:36:40.655Z,8.07
2017-10-31T04:39:10.525Z,7.82
2017-10-31T04:41:38.200Z,7.90
2017-10-31T04:44:06.452Z,7.82
2017-10-31T04:46:34.021Z,8.00
2017-10-31T04:49:01.652Z,8.23
2017-10-31T04:51:29.208Z,8.20
2017-10-31T04:53:58.046Z,7.57
2017-10-31T04:56:25.607Z,7.90
2017-10-31T04:58:53.144Z,8.15
2017-10-31T05:01:21.575Z,9.57
2017-10-31T05:03:49.156Z,8.80
2017-10-31T05:06:16.712Z,8.80
2017-10-31T05:08:44.350Z,7.60
2017-10-31T05:11:11.901Z,8.88
2017-10-31T05:13:39.482Z,8.45
2017-10-31T05:16:07.088Z,8.60
2017-10-31T05:18:34.818Z,8.68
2017-10-31T05:21:02.380Z,7.87
2017-10-31T05:23:30.017Z,8.93
2017-10-31T05:25:58.307Z,8.05
2017-10-31T05:28:26.604Z,8.80
2017-10-31T05:30:54.386Z,8.60
2017-10-31T05:33:22.921Z,8.25
2017-10-31T05:35:50.587Z,8.50
2017-10-31T05:38:18.576Z,8.20
2017-10-31T05:40:46.610Z,8.80
2017-10-31T05:43:14.134Z,7.90
2017-10-31T05:45:41.787Z,8.35
2017-10-31T05:48:09.458Z,8.10
2017-10-31T05:50:36.963Z,8.07
2017-10-31T05:53:04.447Z,8.48
2017-10-31T05:55:31.929Z,8.10
2017-10-31T05:57:59.452Z,8.50
2017-10-31T06:00:26.947Z,8.38
2017-10-31T06:02:54.434Z,8.02
2017-10-31T06:05:21.946Z,9.48
2017-10-31T06:07:49.442Z,8.40
2017-10-31T06:10:16.993Z,7.62
2017-10-31T06:12:44.513Z,7.87
2017-10-31T06:15:12.135Z,7.97
2017-10-31T06:17:39.675Z,8.40
2017-10-31T06:20:07.233Z,8.75
2017-10-31T06:22:40.890Z,8.40
2017-10-31T06:25:13.922Z,7.70
2017-10-31T06:27:46.910Z,10.50
2017-10-31T06:30:20.183Z,8.30
2017-10-31T06:32:47.705Z,8.75
2017-10-31T06:35:15.218Z,8.13
2017-10-31T06:37:42.774Z,8.82
2017-10-31T06:40:10.417Z,8.07
2017-10-31T06:42:37.973Z,9.25
2017-10-31T06:45:05.588Z,8.80
2017-10-31T06:47:33.126Z,10.70
2017-10-31T06:50:00.773Z,8.45
2017-10-31T06:52:28.330Z,7.87
2017-10-31T06:54:55.898Z,7.70
2017-10-31T06:57:23.397Z,8.60
2017-10-31T06:59:50.911Z,8.18
2017-10-31T07:02:18.450Z,10.55
2017-10-31T07:04:45.950Z,8.55
2017-10-31T07:07:13.787Z,8.68
2017-10-31T07:09:41.327Z,8.60
2017-10-31T07:12:08.885Z,8.88
2017-10-31T07:14:36.421Z,7.95
2017-10-31T07:17:03.979Z,9.13
2017-10-31T07:19:31.500Z,8.32
2017-10-31T07:21:59.696Z,8.65
2017-10-31T07:24:27.231Z,8.73
2017-10-31T07:26:54.769Z,8.70
2017-10-31T07:29:22.311Z,8.38
2017-10-31T07:31:49.879Z,9.57
2017-10-31T07:34:17.428Z,10.77
2017-10-31T07:36:44.952Z,8.93
2017-10-31T07:39:12.548Z,9.23
2017-10-31T07:41:40.097Z,8.27
2017-10-31T07:44:07.622Z,8.87
2017-10-31T07:46:35.174Z,9.20
2017-10-31T07:49:03.813Z,8.70
2017-10-31T07:51:31.495Z,8.30
2017-10-31T07:53:59.090Z,8.93
2017-10-31T07:56:26.748Z,8.30
2017-10-31T07:58:54.340Z,9.37
2017-10-31T08:01:21.935Z,10.03
2017-10-31T08:03:49.495Z,9.53
2017-10-31T08:06:17.075Z,10.50
2017-10-31T08:08:44.739Z,11.73
2017-10-31T08:11:12.313Z,9.97
2017-10-31T08:13:39.855Z,11.07
2017-10-31T08:16:07.371Z,9.70
2017-10-31T08:18:34.942Z,9.50
2017-10-31T08:21:02.460Z,9.37
2017-10-31T08:23:29.986Z,9.33
2017-10-31T08:25:57.525Z,9.70
2017-10-31T08:28:25.014Z,9.33
2017-10-31T08:30:52.593Z,9.10
2017-10-31T08:33:20.154Z,9.90
2017-10-31T08:35:47.710Z,9.80
2017-10-31T08:38:15.259Z,9.60
2017-10-31T08:40:42.883Z,9.50
2017-10-31T08:43:10.412Z,9.07
2017-10-31T08:45:40.142Z,9.40
2017-10-31T08:48:11.511Z,8.77
2017-10-31T08:50:39.054Z,9.80
2017-10-31T08:53:06.698Z,9.50
2017-10-31T08:55:38.769Z,9.33
2017-10-31T08:58:06.309Z,9.50
2017-10-31T09:00:33.865Z,9.40
2017-10-31T09:03:01.585Z,9.87
2017-10-31T09:05:29.074Z,10.87
2017-10-31T09:07:56.620Z,9.83
2017-10-31T09:10:24.187Z,11.07
2017-10-31T09:12:51.730Z,10.17
2017-10-31T09:15:19.308Z,10.90
2017-10-31T09:18:03.794Z,11.20
2017-10-31T10:46:17.507Z,13.98
2017-10-31T10:48:45.038Z,15.10
2017-10-31T10:51:12.507Z,14.50
2017-10-31T10:53:40.048Z,14.97
2017-10-31T10:56:07.563Z,13.80
2017-10-31T10:58:35.084Z,13.63
2017-10-31T11:01:02.597Z,14.80
2017-10-31T11:03:30.078Z,13.17
2017-10-31T11:05:57.570Z,14.93
2017-10-31T11:08:25.158Z,13.97
2017-10-31T11:10:52.670Z,13.53
2017-10-31T11:13:20.187Z,12.60
2017-10-31T11:15:47.670Z,13.10
2017-10-31T11:18:15.185Z,13.73
2017-10-31T11:20:42.711Z,13.00
2017-10-31T11:23:10.196Z,13.30
2017-10-31T11:25:37.683Z,13.03
2017-10-31T11:28:06.225Z,12.67
2017-10-31T11:30:33.728Z,13.17
2017-10-31T11:33:01.209Z,14.30
2017-10-31T11:35:28.755Z,13.93
2017-10-31T11:37:56.317Z,13.20
2017-10-31T11:40:23.777Z,13.83
2017-10-31T11:42:51.288Z,14.20
2017-10-31T11:45:18.772Z,12.67
2017-10-31T11:47:46.285Z,13.20
2017-10-31T11:50:13.780Z,14.13
2017-10-31T11:52:41.258Z,13.30
2017-10-31T11:55:08.806Z,12.63
2017-10-31T11:57:36.286Z,13.50
2017-10-31T12:00:03.795Z,12.80
2017-10-31T12:02:31.306Z,11.97
2017-10-31T12:04:58.826Z,12.00
2017-10-31T12:07:26.344Z,12.20
2017-10-31T12:09:53.833Z,13.13
2017-10-31T12:12:21.329Z,12.30
2017-10-31T12:14:48.880Z,12.40
2017-10-31T12:17:16.417Z,13.27
2017-10-31T12:19:43.926Z,11.43
2017-10-31T12:22:11.429Z,11.40
2017-10-31T12:24:38.983Z,10.43
2017-10-31T12:27:06.477Z,10.30
2017-10-31T12:29:34.209Z,12.30
2017-10-31T12:32:01.733Z,9.83
2017-10-31T12:34:29.311Z,8.40
2017-10-31T12:36:56.910Z,11.20
2017-10-31T12:39:24.464Z,10.90
2017-10-31T12:41:52.060Z,10.10
2017-10-31T12:44:19.557Z,9.97
2017-10-31T12:46:47.054Z,9.33
2017-10-31T12:49:14.554Z,8.97
2017-10-31T12:51:42.112Z,9.37
2017-10-31T12:54:09.774Z,9.50
2017-10-31T12:56:38.098Z,9.07
2017-10-31T12:59:05.657Z,8.40
2017-10-31T13:01:33.135Z,9.60
2017-10-31T13:04:00.640Z,8.90
2017-10-31T13:06:28.171Z,8.33
2017-10-31T13:08:55.630Z,8.87
2017-10-31T13:11:23.179Z,8.80
2017-10-31T13:13:51.115Z,8.70
2017-10-31T13:16:18.633Z,9.47
2017-10-31T13:18:46.451Z,8.90
2017-10-31T13:21:13.973Z,10.33
2017-10-31T13:23:41.452Z,8.47
2017-10-31T13:26:09.264Z,10.07
2017-10-31T13:28:37.285Z,8.70
2017-10-31T13:31:05.144Z,8.70
2017-10-31T13:33:33.175Z,8.70
2017-10-31T13:36:01.056Z,8.60
2017-10-31T13:38:29.096Z,8.77
2017-10-31T13:40:57.583Z,8.13
2017-10-31T13:43:26.190Z,8.20
2017-10-31T13:45:54.437Z,8.23
2017-10-31T13:48:22.273Z,8.40
2017-10-31T13:50:50.719Z,8.60
2017-10-31T13:53:18.318Z,8.33
2017-10-31T13:55:45.869Z,8.20
2017-10-31T13:58:13.411Z,7.67
2017-10-31T14:00:41.868Z,7.97
2017-10-31T14:03:13.181Z,7.93
2017-10-31T14:05:41.311Z,7.70
2017-10-31T14:08:09.237Z,6.87
2017-10-31T14:10:37.061Z,7.27
2017-10-31T14:13:04.670Z,7.37
2017-10-31T14:15:32.275Z,7.70
2017-10-31T14:18:01.136Z,7.30
2017-10-31T14:20:28.982Z,7.93
2017-10-31T14:22:56.680Z,9.03
2017-10-31T14:25:24.858Z,8.03
2017-10-31T14:27:52.392Z,8.10
2017-10-31T14:30:20.006Z,7.77
2017-10-31T14:32:51.260Z,7.60
2017-10-31T14:35:18.781Z,8.10
2017-10-31T14:37:46.541Z,8.73
2017-10-31T14:40:14.045Z,8.47
2017-10-31T14:42:41.655Z,8.90
2017-10-31T14:45:09.169Z,7.70
2017-10-31T14:47:36.743Z,8.43
2017-10-31T14:50:04.284Z,7.73
2017-10-31T14:52:31.828Z,9.20
2017-10-31T14:54:59.581Z,8.83
2017-10-31T14:57:27.279Z,7.97
2017-10-31T14:59:54.857Z,7.10
2017-10-31T15:02:22.397Z,7.87
2017-10-31T15:04:51.250Z,7.70
2017-10-31T15:07:18.966Z,8.40
2017-10-31T15:09:46.505Z,8.10
2017-10-31T15:12:14.061Z,8.43
2017-10-31T15:14:41.748Z,7.90
2017-10-31T15:17:10.019Z,8.00
2017-10-31T15:19:37.642Z,7.70
2017-10-31T15:22:05.329Z,7.50
2017-10-31T15:24:33.332Z,7.97
2017-10-31T15:27:00.926Z,7.80
2017-10-31T15:29:28.498Z,8.00
2017-10-31T15:31:56.402Z,8.40
2017-10-31T15:34:23.983Z,7.93
2017-10-31T15:36:51.557Z,8.13
2017-10-31T15:39:19.104Z,8.80
2017-10-31T15:41:46.671Z,8.00
2017-10-31T15:44:14.253Z,9.67
2017-10-31T15:46:41.817Z,10.87
2017-10-31T15:49:09.368Z,12.10
2017-10-31T15:51:36.951Z,10.43
2017-10-31T15:54:04.549Z,10.20
2017-10-31T15:56:32.110Z,10.00
2017-10-31T15:58:59.680Z,10.13
2017-10-31T16:01:27.228Z,9.20
2017-10-31T16:03:54.841Z,10.93
2017-10-31T16:06:22.461Z,9.67
2017-10-31T16:08:50.361Z,11.80
2017-10-31T16:11:17.937Z,16.00
2017-10-31T16:13:45.524Z,23.53
2017-10-31T16:16:13.107Z,14.73
2017-10-31T16:18:40.677Z,12.55
2017-10-31T16:21:08.229Z,13.47
2017-10-31T16:23:35.758Z,15.63
2017-10-31T16:26:03.283Z,13.70
2017-10-31T16:28:30.839Z,15.53
2017-10-31T16:30:58.397Z,23.90
2017-10-31T16:33:25.944Z,19.20
2017-10-31T16:35:53.584Z,16.53
2017-10-31T16:38:21.079Z,15.70
2017-10-31T16:40:48.597Z,14.70
2017-10-31T16:43:16.956Z,16.20
2017-10-31T16:45:44.505Z,15.00
2017-10-31T16:48:12.079Z,13.60
2017-10-31T16:50:39.625Z,15.70
2017-10-31T16:53:07.182Z,18.30
2017-10-31T16:55:34.709Z,15.33
2017-10-31T16:58:02.247Z,13.50
2017-10-31T17:00:29.831Z,14.03
2017-10-31T17:02:57.384Z,12.13
2017-10-31T17:05:25.220Z,12.30
2017-10-31T17:07:52.827Z,16.27
2017-10-31T17:10:20.988Z,12.37
2017-10-31T17:12:48.529Z,11.90
2017-10-31T17:15:16.155Z,13.93
2017-10-31T17:17:44.095Z,14.90
2017-10-31T17:20:11.680Z,14.97
2017-10-31T17:22:39.283Z,15.43
2017-10-31T17:25:06.851Z,17.47
2017-10-31T17:27:34.437Z,17.37
2017-10-31T17:30:03.828Z,20.80
2017-10-31T17:32:31.426Z,22.23
2017-10-31T17:34:59.107Z,21.37
2017-10-31T17:37:26.900Z,19.40
2017-10-31T17:39:54.739Z,20.03
2017-10-31T17:42:22.387Z,17.80
2017-10-31T17:44:50.142Z,16.50
2017-10-31T17:47:17.855Z,14.13
2017-10-31T17:49:45.408Z,16.63
2017-10-31T17:52:13.545Z,15.57
2017-10-31T17:54:41.155Z,15.88
2017-10-31T17:57:08.848Z,13.93
2017-10-31T17:59:36.530Z,14.90
2017-10-31T18:02:04.294Z,15.10
2017-10-31T18:04:31.855Z,14.87
2017-10-31T18:06:59.405Z,19.33
2017-10-31T18:09:27.164Z,21.83
2017-10-31T18:11:54.946Z,19.27
2017-10-31T18:14:22.571Z,22.73
2017-10-31T18:16:50.794Z,24.50
2017-10-31T18:19:19.177Z,24.70
2017-10-31T18:21:46.739Z,23.10
2017-10-31T18:24:14.599Z,20.47
2017-10-31T18:26:42.170Z,19.90
2017-10-31T18:29:09.832Z,19.27
2017-10-31T18:31:37.523Z,18.90
2017-10-31T18:34:07.244Z,23.13
2017-10-31T18:36:34.792Z,20.47
2017-10-31T18:39:02.414Z,22.15
2017-10-31T18:41:29.945Z,21.93
2017-10-31T18:43:57.564Z,21.23
2017-10-31T18:46:25.152Z,22.20
2017-10-31T18:48:52.839Z,21.70
2017-10-31T18:51:20.622Z,22.67
2017-10-31T18:53:48.356Z,21.60
2017-10-31T18:56:16.132Z,20.02
2017-10-31T18:58:43.749Z,19.30
2017-10-31T19:01:11.497Z,18.40
2017-10-31T19:03:39.065Z,19.55
2017-10-31T19:06:06.749Z,17.90
2017-10-31T19:08:35.054Z,21.40
2017-10-31T19:11:03.730Z,19.23
2017-10-31T19:13:33.180Z,18.97
2017-10-31T19:16:00.929Z,19.93
2017-10-31T19:18:28.545Z,21.48
2017-10-31T19:20:56.092Z,21.77
2017-10-31T19:23:23.811Z,22.05
2017-10-31T19:25:51.354Z,23.23
2017-10-31T19:28:18.929Z,21.73
2017-10-31T19:30:46.510Z,21.48
2017-10-31T19:33:14.139Z,25.30
2017-10-31T19:35:41.885Z,26.60
2017-10-31T19:38:09.504Z,24.15
2017-10-31T19:40:37.115Z,23.77
2017-10-31T19:43:04.641Z,22.63
2017-10-31T19:45:32.444Z,25.62
2017-10-31T19:48:00.202Z,28.33
2017-10-31T19:50:27.962Z,24.13
2017-10-31T19:52:55.606Z,24.30
2017-10-31T19:55:23.619Z,24.00
2017-10-31T19:57:51.239Z,23.87
2017-10-31T20:00:19.104Z,24.50
2017-10-31T20:02:46.715Z,24.55
2017-10-31T20:05:14.912Z,27.80
2017-10-31T20:07:42.597Z,26.12
2017-10-31T20:10:10.526Z,25.83
2017-10-31T20:12:38.682Z,27.00
2017-10-31T20:15:06.305Z,26.08
2017-10-31T20:17:34.224Z,26.50
2017-10-31T20:20:02.114Z,27.90
2017-10-31T20:22:29.833Z,32.40
2017-10-31T20:24:57.408Z,31.20
2017-10-31T20:27:25.068Z,29.90
2017-10-31T20:29:56.321Z,35.67
2017-10-31T20:32:23.901Z,26.00
2017-10-31T20:34:51.474Z,28.80
2017-10-31T20:37:19.354Z,26.62
2017-10-31T20:39:51.592Z,29.35
2017-10-31T20:42:19.267Z,25.87
2017-10-31T20:44:46.904Z,24.80
2017-10-31T20:47:14.512Z,24.95
2017-10-31T20:49:42.134Z,24.30
2017-10-31T20:52:10.525Z,27.35
2017-10-31T20:54:38.121Z,25.97
2017-10-31T20:57:05.980Z,25.27
2017-10-31T20:59:33.770Z,26.12
2017-10-31T21:02:01.363Z,25.90
2017-10-31T21:04:29.002Z,25.08
2017-10-31T21:06:59.580Z,25.77
2017-10-31T21:09:27.456Z,25.93
2017-10-31T21:11:55.112Z,27.05
2017-10-31T21:14:22.678Z,24.12
2017-10-31T21:16:51.176Z,25.15
2017-10-31T21:19:18.875Z,26.55
2017-10-31T21:21:46.547Z,26.65
2017-10-31T21:24:15.978Z,27.42
2017-10-31T21:26:43.576Z,25.62
2017-10-31T21:29:11.193Z,26.40
2017-10-31T21:31:43.549Z,25.65
2017-10-31T21:34:12.196Z,27.40
2017-10-31T21:39:17.101Z,27.10
2017-10-31T21:41:44.717Z,24.07
2017-10-31T21:44:14.098Z,24.55
2017-10-31T21:46:41.858Z,24.87
2017-10-31T21:49:09.575Z,24.00
2017-10-31T21:51:37.366Z,24.97
2017-10-31T21:54:05.870Z,23.45
2017-10-31T21:56:33.525Z,24.02
2017-10-31T21:59:01.134Z,23.90
2017-10-31T22:01:29.133Z,23.90
2017-10-31T22:03:56.898Z,24.00
2017-10-31T22:06:24.516Z,23.87
2017-10-31T22:08:56.364Z,24.30
2017-10-31T22:11:23.951Z,24.00
2017-10-31T22:13:51.941Z,23.80
2017-10-31T22:16:19.843Z,24.27
2017-10-31T22:18:47.561Z,24.70
2017-10-31T22:21:19.071Z,24.52
2017-10-31T22:23:46.826Z,24.67
2017-10-31T22:26:14.603Z,25.60
2017-10-31T22:28:42.222Z,25.62
2017-10-31T22:31:09.899Z,23.92
2017-10-31T22:33:38.416Z,23.62
2017-10-31T22:36:06.075Z,24.60
2017-10-31T22:38:33.793Z,24.15
2017-10-31T22:41:01.406Z,23.50
2017-10-31T22:43:29.064Z,23.15
2017-10-31T22:45:56.641Z,21.52
2017-10-31T22:48:24.237Z,20.15
2017-10-31T22:50:51.852Z,21.02
2017-10-31T22:53:19.513Z,20.53
2017-10-31T22:55:47.372Z,21.25
2017-10-31T22:58:14.962Z,20.30
2017-10-31T23:00:42.605Z,21.25
2017-10-31T23:03:10.270Z,19.87
2017-10-31T23:05:37.979Z,20.42
2017-10-31T23:08:05.574Z,24.58
2017-10-31T23:10:33.193Z,25.98
2017-10-31T23:13:00.897Z,23.90
2017-10-31T23:15:28.617Z,21.80
2017-10-31T23:17:59.343Z,22.83
2017-10-31T23:20:27.000Z,20.75
2017-10-31T23:22:55.010Z,22.13
2017-10-31T23:25:24.695Z,22.17
2017-10-31T23:27:52.689Z,22.95
2017-10-31T23:30:20.551Z,22.77
2017-10-31T23:32:51.506Z,23.10
2017-10-31T23:35:27.363Z,23.35
2017-10-31T23:37:55.902Z,23.45
2017-10-31T23:40:23.878Z,23.45
2017-10-31T23:43:00.077Z,23.77
2017-10-31T23:45:28.193Z,23.30
2017-10-31T23:47:56.070Z,22.00
2017-10-31T23:50:24.386Z,22.83
2017-10-31T23:52:52.152Z,23.87
2017-10-31T23:55:19.804Z,24.25
2017-10-31T23:57:47.735Z,22.40
